Time;durP1;ratioP1;P1;durP2;ratioP2;P2;SDS_P1;SDS_P2;PMS_P1;PMS_P2;Temp;Humidity;BMP_temperature;BMP_pressure;BME280_temperature;BME280_humidity;BME280_pressure;Samples;Min_cycle;Max_cycle;Signal;HPM_P1;HPM_P2
2021/05/08 00:00:16;;;;;;;0.60;0.60;;;;;;;5.06;60.74;97176.62;29395;234;63008;-56
2021/05/08 00:00:47;;;;;;;0.60;0.60;;;;;;;5.04;60.88;97182.25;29395;221;63004;-57
2021/05/08 00:01:20;;;;;;;0.60;0.60;;;;;;;5.03;61.11;97177.12;29395;233;63022;-57
2021/05/08 00:01:51;;;;;;;0.60;0.60;;;;;;;5.03;61.07;97179.81;29393;241;64005;-57
2021/05/08 00:02:23;;;;;;;0.60;0.60;;;;;;;5.04;60.91;97178.75;29395;209;63009;-56
2021/05/08 00:02:54;;;;;;;0.60;0.60;;;;;;;5.04;60.93;97176.06;29395;219;63005;-57
2021/05/08 00:03:26;;;;;;;0.60;0.60;;;;;;;5.00;60.85;97175.72;29395;224;63005;-57
2021/05/08 00:03:57;;;;;;;0.60;0.60;;;;;;;4.99;61.16;97170.59;29395;230;63005;-57
2021/05/08 00:04:29;;;;;;;0.60;0.60;;;;;;;4.98;61.14;97171.66;29395;231;63015;-56
2021/05/08 00:05:00;;;;;;;0.70;0.70;;;;;;;4.96;61.25;97173.78;29395;204;63004;-56
2021/05/08 00:05:31;;;;;;;0.60;0.60;;;;;;;4.97;61.22;97175.41;29395;233;63009;-57
2021/05/08 00:06:07;;;;;;;0.60;0.60;;;;;;;4.97;61.40;97175.41;29395;215;63004;-57
2021/05/08 00:06:38;;;;;;;0.60;0.60;;;;;;;4.95;61.13;97175.66;29395;210;63009;-56
2021/05/08 00:07:09;;;;;;;0.60;0.60;;;;;;;4.96;61.40;97181.84;29393;233;64004;-56
2021/05/08 00:07:41;;;;;;;0.70;0.70;;;;;;;4.94;61.37;97181.28;29395;245;63008;-57
2021/05/08 00:08:15;;;;;;;0.60;0.60;;;;;;;4.90;61.41;97180.16;29395;217;63004;-56
2021/05/08 00:08:46;;;;;;;0.60;0.60;;;;;;;4.89;61.41;97183.91;29395;231;63009;-56
2021/05/08 00:09:17;;;;;;;0.60;0.60;;;;;;;4.85;61.73;97188.19;29395;242;63005;-53
2021/05/08 00:09:49;;;;;;;0.60;0.60;;;;;;;4.83;61.65;97184.94;29395;197;63009;-57
2021/05/08 00:10:21;;;;;;;0.60;0.60;;;;;;;4.82;61.58;97183.31;29395;228;63005;-57
2021/05/08 00:10:52;;;;;;;0.60;0.60;;;;;;;4.83;61.49;97187.63;29373;251;63009;-56
2021/05/08 00:11:23;;;;;;;0.60;0.60;;;;;;;4.86;61.61;97184.41;29395;232;63005;-57
2021/05/08 00:11:55;;;;;;;0.60;0.60;;;;;;;4.85;61.80;97185.50;29395;206;63005;-57
2021/05/08 00:12:27;;;;;;;0.60;0.60;;;;;;;4.85;61.65;97188.19;29393;229;64005;-56
2021/05/08 00:12:58;;;;;;;0.57;0.57;;;;;;;4.84;61.43;97190.06;29395;214;63009;-56
2021/05/08 00:13:29;;;;;;;0.62;0.62;;;;;;;4.84;61.58;97186.56;29395;216;63004;-56
2021/05/08 00:14:01;;;;;;;0.60;0.60;;;;;;;4.83;61.50;97190.31;29395;214;63009;-56
2021/05/08 00:14:33;;;;;;;0.60;0.60;;;;;;;4.81;61.83;97189.75;29395;215;63004;-56
2021/05/08 00:15:06;;;;;;;0.60;0.60;;;;;;;4.79;61.69;97183.81;29395;197;63008;-57
2021/05/08 00:15:37;;;;;;;0.60;0.60;;;;;;;4.78;61.92;97187.56;29395;229;63004;-56
2021/05/08 00:16:08;;;;;;;0.62;0.62;;;;;;;4.77;61.74;97185.94;29395;211;63009;-57
2021/05/08 00:16:39;;;;;;;0.60;0.60;;;;;;;4.77;61.90;97185.94;29395;245;63005;-56
2021/05/08 00:17:10;;;;;;;0.60;0.60;;;;;;;4.75;61.85;97188.03;29373;212;63009;-56
2021/05/08 00:17:43;;;;;;;0.60;0.60;;;;;;;4.70;61.87;97181.53;29393;209;64005;-56
2021/05/08 00:18:14;;;;;;;0.60;0.60;;;;;;;4.70;62.08;97178.03;29395;206;63009;-56
2021/05/08 00:18:45;;;;;;;0.60;0.60;;;;;;;4.69;62.23;97185.28;29393;236;64005;-57
2021/05/08 00:19:17;;;;;;;0.60;0.60;;;;;;;4.68;62.20;97183.66;29395;267;63009;-53
2021/05/08 00:19:48;;;;;;;0.60;0.60;;;;;;;4.67;62.29;97182.03;29395;198;63005;-57
2021/05/08 00:20:23;;;;;;;0.60;0.60;;;;;;;4.67;62.17;97182.03;29373;216;63009;-56
2021/05/08 00:20:54;;;;;;;0.60;0.60;;;;;;;4.65;62.25;97183.34;29395;197;63010;-57
2021/05/08 00:21:26;;;;;;;0.80;0.80;;;;;;;4.65;62.10;97183.34;29395;281;63014;-56
2021/05/08 00:21:57;;;;;;;0.60;0.60;;;;;;;4.65;62.27;97177.97;29373;197;63004;-56
2021/05/08 00:22:28;;;;;;;0.60;0.60;;;;;;;4.64;62.01;97185.22;29395;197;63009;-56
2021/05/08 00:22:59;;;;;;;1.55;1.55;;;;;;;4.67;62.36;97179.34;29395;202;63004;-57
2021/05/08 00:23:31;;;;;;;0.60;0.60;;;;;;;4.66;62.24;97184.97;29395;207;63009;-56
2021/05/08 00:24:04;;;;;;;0.60;0.60;;;;;;;4.62;62.40;97179.28;29394;231;64005;-57
2021/05/08 00:24:35;;;;;;;0.60;0.60;;;;;;;4.60;62.38;97181.37;29395;326;63009;-58
2021/05/08 00:25:09;;;;;;;0.60;0.60;;;;;;;4.61;62.52;97183.00;29395;298;63000;-56
2021/05/08 00:25:41;;;;;;;0.60;0.60;;;;;;;4.60;62.44;97181.37;29395;209;63027;-56
2021/05/08 00:26:12;;;;;;;0.60;0.60;;;;;;;4.61;62.46;97177.62;29395;202;63005;-57
2021/05/08 00:26:44;;;;;;;0.65;0.65;;;;;;;4.62;62.48;97183.81;29395;213;63009;-57
2021/05/08 00:27:15;;;;;;;0.60;0.60;;;;;;;4.61;62.72;97185.69;29395;266;63005;-56
2021/05/08 00:27:47;;;;;;;0.70;0.70;;;;;;;4.60;62.37;97186.75;29373;232;63009;-56
2021/05/08 00:28:19;;;;;;;0.60;0.60;;;;;;;4.59;62.77;97182.44;29395;215;63004;-56
2021/05/08 00:28:52;;;;;;;0.60;0.60;;;;;;;4.62;62.66;97187.34;29395;234;63009;-57
2021/05/08 00:29:23;;;;;;;0.60;0.60;;;;;;;4.61;62.39;97183.00;29371;219;64004;-57
2021/05/08 00:29:54;;;;;;;0.60;0.60;;;;;;;4.61;62.49;97177.62;29395;218;63009;-56
2021/05/08 00:30:26;;;;;;;0.60;0.60;;;;;;;4.60;62.69;97184.06;29395;210;63004;-57
2021/05/08 00:30:57;;;;;;;0.60;0.60;;;;;;;4.61;62.42;97183.00;29395;203;63008;-57
2021/05/08 00:31:30;;;;;;;0.60;0.60;;;;;;;4.60;62.49;97186.75;29394;217;64005;-57
2021/05/08 00:32:02;;;;;;;0.60;0.60;;;;;;;4.59;62.45;97179.75;29395;231;63009;-56
2021/05/08 00:32:34;;;;;;;0.60;0.60;;;;;;;4.56;62.71;97180.25;29395;198;63005;-56
2021/05/08 00:33:06;;;;;;;0.60;0.60;;;;;;;4.57;62.76;97189.13;29395;227;63009;-57
2021/05/08 00:33:37;;;;;;;0.60;0.60;;;;;;;4.55;62.96;97184.00;29395;238;63005;-56
2021/05/08 00:34:11;;;;;;;0.60;0.60;;;;;;;4.52;62.82;97181.81;29395;323;63009;-56
2021/05/08 00:34:42;;;;;;;0.60;0.60;;;;;;;4.52;63.16;97184.50;29371;202;64005;-56
2021/05/08 00:35:14;;;;;;;0.75;0.75;;;;;;;4.51;63.07;97182.88;29373;241;63009;-56
2021/05/08 00:35:45;;;;;;;0.60;0.60;;;;;;;4.53;63.01;97186.13;29395;216;63004;-56
2021/05/08 00:36:16;;;;;;;0.60;0.60;;;;;;;4.51;62.99;97182.06;29394;214;64009;-57
2021/05/08 00:36:47;;;;;;;0.60;0.60;;;;;;;4.47;63.67;97189.00;29395;277;63004;-55
2021/05/08 00:37:19;;;;;;;0.60;0.60;;;;;;;4.42;63.47;97180.87;29395;254;63009;-56
2021/05/08 00:37:50;;;;;;;0.60;0.60;;;;;;;4.40;63.59;97181.09;29373;241;63008;-57
2021/05/08 00:38:21;;;;;;;0.60;0.60;;;;;;;4.38;63.30;97188.59;29395;205;63008;-56
2021/05/08 00:38:52;;;;;;;0.60;0.60;;;;;;;4.34;63.70;97193.66;29373;235;63005;-53
2021/05/08 00:39:24;;;;;;;0.60;0.60;;;;;;;4.33;63.76;97186.66;29373;306;63009;-53
2021/05/08 00:39:55;;;;;;;0.60;0.60;;;;;;;4.33;63.75;97180.47;29394;281;64005;-57
2021/05/08 00:40:26;;;;;;;0.60;0.60;;;;;;;4.33;64.06;97185.84;29373;324;63009;-57
2021/05/08 00:40:58;;;;;;;0.60;0.60;;;;;;;4.32;64.19;97189.56;29395;226;63005;-53
2021/05/08 00:41:29;;;;;;;0.60;0.60;;;;;;;4.31;64.09;97190.63;29395;233;63009;-56
2021/05/08 00:42:00;;;;;;;0.60;0.60;;;;;;;4.29;64.06;97184.69;29395;280;63005;-56
2021/05/08 00:42:32;;;;;;;0.60;0.60;;;;;;;4.30;64.40;97187.13;29373;232;63009;-57
2021/05/08 00:43:03;;;;;;;0.60;0.60;;;;;;;4.29;64.18;97184.69;29373;222;63004;-57
2021/05/08 00:43:35;;;;;;;0.60;0.60;;;;;;;4.30;64.05;97191.69;29373;224;63009;-57
2021/05/08 00:44:06;;;;;;;0.60;0.60;;;;;;;4.27;64.29;97179.56;29395;197;63004;-56
2021/05/08 00:44:38;;;;;;;0.60;0.60;;;;;;;4.28;64.42;97183.06;29393;234;64009;-53
2021/05/08 00:45:10;;;;;;;0.60;0.60;;;;;;;4.25;64.66;97183.56;29395;235;63004;-54
2021/05/08 00:45:42;;;;;;;0.60;0.60;;;;;;;4.23;64.34;97185.66;29395;335;63008;-57
2021/05/08 00:46:14;;;;;;;0.60;0.60;;;;;;;4.19;64.66;97179.97;29373;260;63005;-56
2021/05/08 00:46:45;;;;;;;0.60;0.60;;;;;;;4.18;64.30;97177.53;29395;282;63009;-56
2021/05/08 00:47:18;;;;;;;0.60;0.60;;;;;;;4.17;64.91;97183.97;29395;218;63005;-57
2021/05/08 00:47:50;;;;;;;0.60;0.60;;;;;;;4.18;64.69;97178.34;29395;228;63009;-57
2021/05/08 00:48:22;;;;;;;0.60;0.60;;;;;;;4.16;64.71;97180.47;29371;264;64005;-56
2021/05/08 00:48:55;;;;;;;0.60;0.60;;;;;;;4.14;64.80;97181.78;29371;198;64009;-56
2021/05/08 00:49:28;;;;;;;0.60;0.60;;;;;;;4.11;64.58;97174.22;29395;240;63005;-57
2021/05/08 00:50:00;;;;;;;0.60;0.60;;;;;;;4.10;64.96;97175.28;29373;262;63009;-57
2021/05/08 00:50:32;;;;;;;0.60;0.60;;;;;;;4.06;65.44;97179.50;29373;257;63004;-56
2021/05/08 00:51:05;;;;;;;0.60;0.60;;;;;;;4.02;65.76;97181.84;29394;236;64009;-57
2021/05/08 00:51:36;;;;;;;0.60;0.60;;;;;;;3.98;65.86;97184.22;29395;197;63004;-57
2021/05/08 00:52:08;;;;;;;0.60;0.60;;;;;;;3.97;65.39;97177.22;29373;222;63009;-56
2021/05/08 00:52:39;;;;;;;0.70;0.70;;;;;;;3.97;65.49;97181.78;29395;386;63004;-57
2021/05/08 00:53:11;;;;;;;0.60;0.60;;;;;;;3.95;65.77;97173.97;29373;208;63008;-56
2021/05/08 00:53:42;;;;;;;0.60;0.60;;;;;;;3.94;66.33;97182.25;29394;236;64005;-57
2021/05/08 00:54:13;;;;;;;0.60;0.60;;;;;;;3.92;66.07;97174.44;29395;283;63021;-57
2021/05/08 00:54:45;;;;;;;0.60;0.60;;;;;;;3.91;66.19;97180.06;29395;285;63005;-57
2021/05/08 00:55:16;;;;;;;0.60;0.60;;;;;;;3.89;66.30;97177.62;29395;214;63009;-56
2021/05/08 00:55:47;;;;;;;0.60;0.60;;;;;;;3.86;66.22;97178.09;29373;281;63005;-57
2021/05/08 00:56:19;;;;;;;0.60;0.60;;;;;;;3.86;66.67;97179.97;29371;212;64009;-57
2021/05/08 00:56:50;;;;;;;0.60;0.60;;;;;;;3.84;66.57;97182.88;29373;196;63005;-57
2021/05/08 00:57:22;;;;;;;0.60;0.60;;;;;;;3.83;66.47;97181.25;29371;233;64009;-56
2021/05/08 00:57:53;;;;;;;0.60;0.60;;;;;;;3.83;66.33;97186.63;29373;207;63004;-57
2021/05/08 00:58:25;;;;;;;0.60;0.60;;;;;;;3.84;66.07;97182.88;29373;239;63009;-57
2021/05/08 00:58:56;;;;;;;0.60;0.60;;;;;;;3.83;66.89;97186.63;29373;204;63004;-57
2021/05/08 00:59:28;;;;;;;2.05;2.05;;;;;;;3.82;66.89;97181.50;29371;326;64009;-56
2021/05/08 01:00:00;;;;;;;0.60;0.60;;;;;;;3.82;66.72;97184.19;29373;222;63004;-57
2021/05/08 01:00:31;;;;;;;0.60;0.60;;;;;;;3.81;66.74;97188.75;29373;252;63008;-56
2021/05/08 01:01:03;;;;;;;0.60;0.60;;;;;;;3.78;66.82;97183.06;29373;235;63004;-57
2021/05/08 01:01:35;;;;;;;0.70;0.70;;;;;;;3.78;66.96;97177.69;29371;240;64009;-56
2021/05/08 01:02:06;;;;;;;0.60;0.60;;;;;;;3.80;66.53;97184.47;29395;282;63005;-57
2021/05/08 01:02:37;;;;;;;0.60;0.60;;;;;;;3.81;66.76;97187.97;29373;315;63009;-56
2021/05/08 01:03:09;;;;;;;0.60;0.60;;;;;;;3.79;67.36;97172.09;29373;328;63005;-56
2021/05/08 01:03:44;;;;;;;0.65;0.65;;;;;;;3.76;67.63;97180.63;29373;278;63009;-56
2021/05/08 01:04:15;;;;;;;0.60;0.60;;;;;;;3.75;66.96;97179.00;29371;319;64005;-56
2021/05/08 01:04:46;;;;;;;0.60;0.60;;;;;;;3.74;67.09;97182.75;29373;321;63009;-57
2021/05/08 01:05:19;;;;;;;0.70;0.70;;;;;;;3.74;66.87;97182.75;29373;205;63004;-52
2021/05/08 01:05:50;;;;;;;0.90;0.90;;;;;;;3.74;67.23;97182.75;29373;240;63009;-57
2021/05/08 01:06:21;;;;;;;0.70;0.70;;;;;;;3.73;67.12;97183.78;29373;297;63004;-57
2021/05/08 01:06:54;;;;;;;0.60;0.60;;;;;;;3.73;67.22;97181.09;29373;230;63009;-57
2021/05/08 01:07:26;;;;;;;0.60;0.60;;;;;;;3.73;66.86;97186.47;29373;264;63004;-56
2021/05/08 01:07:58;;;;;;;0.60;0.60;;;;;;;3.72;67.65;97179.47;29371;237;63998;-57
2021/05/08 01:08:31;;;;;;;0.65;0.65;;;;;;;3.72;67.28;97184.84;29373;210;63004;-57
2021/05/08 01:09:06;;;;;;;0.60;0.60;;;;;;;3.72;67.08;97178.66;29373;224;63009;-56
2021/05/08 01:09:38;;;;;;;0.60;0.60;;;;;;;3.70;67.34;97184.28;29373;276;63005;-56
2021/05/08 01:10:12;;;;;;;0.60;0.60;;;;;;;3.70;67.46;97186.97;29373;222;63009;-56
2021/05/08 01:10:47;;;;;;;0.60;0.60;;;;;;;3.69;67.27;97185.34;29373;220;63005;-56
2021/05/08 01:11:19;;;;;;;0.60;0.60;;;;;;;3.69;67.26;97190.69;29373;299;63009;-56
2021/05/08 01:11:51;;;;;;;0.70;0.70;;;;;;;3.68;67.37;97183.69;29373;227;63005;-56
2021/05/08 01:12:23;;;;;;;0.60;0.60;;;;;;;3.68;67.11;97189.06;29373;338;63009;-56
2021/05/08 01:12:55;;;;;;;0.60;0.60;;;;;;;3.66;67.57;97194.69;29373;271;63004;-57
2021/05/08 01:13:27;;;;;;;0.60;0.60;;;;;;;3.64;67.29;97187.91;29371;240;64009;-57
2021/05/08 01:13:58;;;;;;;0.60;0.60;;;;;;;3.63;67.63;97186.28;29373;267;63004;-56
2021/05/08 01:14:30;;;;;;;0.60;0.60;;;;;;;3.62;67.55;97190.84;29373;250;63009;-57
2021/05/08 01:15:08;;;;;;;0.60;0.60;;;;;;;3.61;68.15;97189.22;29373;196;63004;-57
2021/05/08 01:15:40;;;;;;;0.70;0.70;;;;;;;3.61;67.75;97188.41;29373;269;63009;-56
2021/05/08 01:16:12;;;;;;;0.70;0.70;;;;;;;3.59;68.25;97190.50;29371;208;64005;-57
2021/05/08 01:16:44;;;;;;;0.60;0.60;;;;;;;3.58;68.12;97189.69;29373;312;63009;-57
2021/05/08 01:17:16;;;;;;;0.60;0.60;;;;;;;3.58;68.23;97183.50;29373;321;63005;-57
2021/05/08 01:17:47;;;;;;;0.60;0.60;;;;;;;3.58;67.90;97191.56;29373;273;63009;-56
2021/05/08 01:18:18;;;;;;;0.60;0.60;;;;;;;3.59;68.02;97191.31;29373;224;63005;-57
2021/05/08 01:18:52;;;;;;;0.70;0.70;;;;;;;3.60;67.79;97187.59;29373;216;63009;-57
2021/05/08 01:19:29;;;;;;;0.60;0.60;;;;;;;3.60;67.86;97184.09;29373;238;63005;-57
2021/05/08 01:20:00;;;;;;;0.60;0.60;;;;;;;3.57;67.56;97188.06;29373;282;63009;-57
2021/05/08 01:20:32;;;;;;;0.70;0.70;;;;;;;3.57;68.22;97192.62;29373;212;63004;-57
2021/05/08 01:21:16;;;;;;;0.60;0.60;;;;;;;3.57;67.79;97188.06;29373;213;63009;-56
2021/05/08 01:21:48;;;;;;;0.60;0.60;;;;;;;3.59;67.86;97190.50;29371;202;64004;-56
2021/05/08 01:22:19;;;;;;;0.60;0.60;;;;;;;3.61;67.36;97180.34;29373;222;63008;-57
2021/05/08 01:22:51;;;;;;;0.65;0.65;;;;;;;3.63;67.58;97180.94;29373;196;63004;-56
2021/05/08 01:23:22;;;;;;;0.60;0.60;;;;;;;3.63;67.36;97183.59;29373;236;63009;-56
2021/05/08 01:23:53;;;;;;;0.60;0.60;;;;;;;3.65;67.53;97184.19;29373;285;63005;-57
2021/05/08 01:24:24;;;;;;;0.70;0.70;;;;;;;3.64;67.34;97188.72;29373;284;63009;-53
2021/05/08 01:24:56;;;;;;;0.60;0.60;;;;;;;3.65;67.23;97184.19;29373;241;63005;-57
2021/05/08 01:25:28;;;;;;;0.60;0.60;;;;;;;3.66;67.23;97185.81;29373;290;63009;-56
2021/05/08 01:26:00;;;;;;;0.60;0.60;;;;;;;3.67;67.29;97187.44;29371;197;64005;-57
2021/05/08 01:26:32;;;;;;;0.60;0.60;;;;;;;3.67;67.29;97187.44;29373;273;63009;-57
2021/05/08 01:27:04;;;;;;;0.70;0.70;;;;;;;3.67;67.49;97187.44;29373;276;63005;-57
2021/05/08 01:27:45;;;;;;;0.60;0.60;;;;;;;3.66;67.15;97186.63;29373;197;63009;-56
2021/05/08 01:28:17;;;;;;;0.60;0.60;;;;;;;3.68;67.29;97187.19;29395;306;63004;-56
2021/05/08 01:28:50;;;;;;;0.60;0.60;;;;;;;3.69;67.08;97179.97;29395;280;63009;-56
2021/05/08 01:29:21;;;;;;;0.60;0.60;;;;;;;3.68;67.13;97186.38;29373;251;63004;-57
2021/05/08 01:29:52;;;;;;;0.60;0.60;;;;;;;3.69;67.08;97185.34;29373;371;63008;-57
2021/05/08 01:30:27;;;;;;;0.60;0.60;;;;;;;3.70;67.22;97182.41;29373;297;63004;-57
2021/05/08 01:30:58;;;;;;;0.60;0.60;;;;;;;3.72;67.33;97184.84;29371;202;64009;-57
2021/05/08 01:31:29;;;;;;;0.60;0.60;;;;;;;3.74;67.10;97177.38;29373;197;63005;-56
2021/05/08 01:32:00;;;;;;;0.60;0.60;;;;;;;3.73;66.96;97181.09;29373;197;63009;-56
2021/05/08 01:32:32;;;;;;;0.60;0.60;;;;;;;3.72;67.14;97179.47;29373;226;63005;-57
2021/05/08 01:33:05;;;;;;;0.60;0.60;;;;;;;3.71;67.47;97175.16;29373;229;63009;-56
2021/05/08 01:33:36;;;;;;;0.70;0.70;;;;;;;3.70;67.10;97176.22;29373;256;63005;-57
2021/05/08 01:34:08;;;;;;;0.60;0.60;;;;;;;3.69;67.29;97174.59;29395;210;63009;-56
2021/05/08 01:34:39;;;;;;;0.60;0.60;;;;;;;3.68;67.25;97167.59;29395;227;63005;-56
2021/05/08 01:35:10;;;;;;;0.60;0.60;;;;;;;3.68;67.11;97179.16;29395;266;63009;-56
2021/05/08 01:35:41;;;;;;;0.70;0.70;;;;;;;3.69;67.30;97179.97;29395;238;63004;-57
2021/05/08 01:36:13;;;;;;;0.60;0.60;;;;;;;3.71;67.31;97177.84;29371;282;64009;-56
2021/05/08 01:36:44;;;;;;;0.60;0.60;;;;;;;3.69;67.13;97174.59;29373;245;63004;-56
2021/05/08 01:37:16;;;;;;;0.60;0.60;;;;;;;3.70;67.09;97170.84;29373;204;63016;-56
2021/05/08 01:37:47;;;;;;;0.60;0.60;;;;;;;3.68;67.50;97170.28;29373;218;63004;-57
2021/05/08 01:38:19;;;;;;;0.62;0.62;;;;;;;3.66;67.88;97178.56;29373;214;63009;-57
2021/05/08 01:38:51;;;;;;;0.60;0.60;;;;;;;3.65;67.79;97173.44;29373;283;63005;-57
2021/05/08 01:39:22;;;;;;;0.70;0.70;;;;;;;3.64;68.03;97180.69;29373;304;63009;-56
2021/05/08 01:39:53;;;;;;;0.60;0.60;;;;;;;3.65;67.58;97176.13;29373;230;63011;-56
2021/05/08 01:40:32;;;;;;;0.60;0.60;;;;;;;3.62;68.08;97179.28;29373;270;63009;-57
2021/05/08 01:41:07;;;;;;;0.60;0.60;;;;;;;3.61;67.95;97172.31;29373;300;63000;-57
2021/05/08 01:41:38;;;;;;;0.60;0.60;;;;;;;3.61;67.75;97172.31;29371;285;64024;-57
2021/05/08 01:42:13;;;;;;;0.60;0.60;;;;;;;3.61;67.43;97178.47;29373;296;63005;-56
2021/05/08 01:42:48;;;;;;;0.60;0.60;;;;;;;3.63;67.36;97176.38;29373;265;63009;-57
2021/05/08 01:43:19;;;;;;;0.60;0.60;;;;;;;3.63;67.44;97172.87;29373;302;63004;-56
2021/05/08 01:43:51;;;;;;;0.60;0.60;;;;;;;3.62;67.43;97168.56;29373;294;63009;-56
2021/05/08 01:44:22;;;;;;;0.60;0.60;;;;;;;3.63;67.48;97164.81;29373;198;63004;-56
2021/05/08 01:44:53;;;;;;;0.60;0.60;;;;;;;3.62;67.56;97171.25;29373;368;63008;-56
2021/05/08 01:45:25;;;;;;;0.60;0.60;;;;;;;3.60;67.53;97170.66;29373;334;63004;-57
2021/05/08 01:45:59;;;;;;;0.60;0.60;;;;;;;3.60;67.57;97176.03;29373;233;63009;-56
2021/05/08 01:46:32;;;;;;;0.60;0.60;;;;;;;3.58;67.50;97167.41;29373;232;63005;-57
2021/05/08 01:47:03;;;;;;;0.60;0.60;;;;;;;3.57;67.63;97165.78;29371;349;64009;-57
2021/05/08 01:47:35;;;;;;;0.60;0.60;;;;;;;3.56;67.76;97164.97;29373;292;63005;-57
2021/05/08 01:48:09;;;;;;;0.60;0.60;;;;;;;3.56;67.72;97174.88;29373;330;63016;-56
2021/05/08 01:48:40;;;;;;;0.60;0.60;;;;;;;3.54;67.66;97166.25;29373;261;63005;-56
2021/05/08 01:49:11;;;;;;;0.60;0.60;;;;;;;3.55;67.57;97168.72;29373;273;63009;-53
2021/05/08 01:49:44;;;;;;;0.70;0.70;;;;;;;3.56;67.47;97164.16;29373;276;63005;-57
2021/05/08 01:50:18;;;;;;;0.50;0.50;;;;;;;3.57;67.48;97165.78;29373;304;63009;-57
2021/05/08 01:50:50;;;;;;;0.60;0.60;;;;;;;3.57;67.83;97165.78;29373;200;63004;-56
2021/05/08 01:51:22;;;;;;;0.60;0.60;;;;;;;3.57;67.71;97165.78;29373;250;63009;-56
2021/05/08 01:51:56;;;;;;;0.60;0.60;;;;;;;3.57;67.74;97171.16;29373;265;63004;-56
2021/05/08 01:52:27;;;;;;;0.60;0.60;;;;;;;3.57;67.66;97165.78;29371;201;64008;-57
2021/05/08 01:52:58;;;;;;;0.60;0.60;;;;;;;3.57;67.66;97168.47;29373;263;63004;-57
2021/05/08 01:53:29;;;;;;;0.60;0.60;;;;;;;3.60;67.93;97159.94;29373;310;63011;-57
2021/05/08 01:54:01;;;;;;;0.60;0.60;;;;;;;3.60;67.84;97165.31;29373;315;63005;-57
2021/05/08 01:54:32;;;;;;;0.60;0.60;;;;;;;3.61;67.36;97158.87;29373;319;63009;-56
2021/05/08 01:55:10;;;;;;;0.60;0.60;;;;;;;3.62;67.57;97157.81;29373;256;63005;-57
2021/05/08 01:55:43;;;;;;;0.60;0.60;;;;;;;3.61;67.60;97161.56;29373;259;63009;-56
2021/05/08 01:56:17;;;;;;;0.60;0.60;;;;;;;3.60;67.72;97154.56;29373;208;63005;-54
2021/05/08 01:56:48;;;;;;;0.60;0.60;;;;;;;3.57;67.77;97150.50;29373;203;63009;-56
2021/05/08 01:57:19;;;;;;;0.60;0.60;;;;;;;3.56;67.92;97158.78;29373;312;63004;-57
2021/05/08 01:57:53;;;;;;;0.60;0.60;;;;;;;3.55;67.72;97162.53;29371;215;64009;-57
2021/05/08 01:58:24;;;;;;;0.70;0.70;;;;;;;3.55;67.74;97159.84;29373;302;63004;-57
2021/05/08 01:58:55;;;;;;;0.70;0.70;;;;;;;3.54;68.03;97158.22;29373;248;63009;-57
2021/05/08 01:59:31;;;;;;;0.70;0.70;;;;;;;3.52;67.98;97163.00;29373;196;63000;-56
2021/05/08 02:00:08;;;;;;;0.70;0.70;;;;;;;3.50;68.14;97159.75;29373;196;63008;-57
2021/05/08 02:00:43;;;;;;;0.95;0.95;;;;;;;3.48;68.40;97151.94;29373;308;63000;-56
2021/05/08 02:01:14;;;;;;;0.70;0.70;;;;;;;3.49;67.92;97152.75;29373;298;63009;-57
2021/05/08 02:01:47;;;;;;;2.92;2.83;;;;;;;3.48;68.09;97156.50;29373;240;63005;-57
2021/05/08 02:02:18;;;;;;;0.70;0.70;;;;;;;3.48;67.82;97157.31;29373;202;63009;-57
2021/05/08 02:02:51;;;;;;;0.62;0.62;;;;;;;3.53;67.91;97153.91;29373;217;63000;-56
2021/05/08 02:03:29;;;;;;;0.60;0.60;;;;;;;3.53;67.95;97149.34;29371;214;64009;-57
2021/05/08 02:04:01;;;;;;;0.60;0.60;;;;;;;3.53;67.77;97149.34;29373;321;63005;-57
2021/05/08 02:04:33;;;;;;;0.60;0.60;;;;;;;3.52;67.52;97152.28;29373;265;63009;-57
2021/05/08 02:05:06;;;;;;;0.60;0.60;;;;;;;3.53;67.71;97149.34;29372;260;64004;-58
2021/05/08 02:05:40;;;;;;;0.60;0.60;;;;;;;3.54;67.48;97150.16;29373;305;63009;-56
2021/05/08 02:06:11;;;;;;;0.60;0.60;;;;;;;3.55;67.78;97146.44;29373;307;63004;-56
2021/05/08 02:06:50;;;;;;;0.60;0.60;;;;;;;3.52;67.54;97149.59;29373;265;63008;-56
2021/05/08 02:07:21;;;;;;;0.70;0.70;;;;;;;3.53;67.75;97143.16;29373;284;63004;-57
2021/05/08 02:07:54;;;;;;;0.70;0.70;;;;;;;3.53;67.50;97153.91;29373;217;63009;-57
2021/05/08 02:08:25;;;;;;;0.70;0.70;;;;;;;3.51;67.64;97140.72;29371;242;64005;-56
2021/05/08 02:08:56;;;;;;;0.70;0.70;;;;;;;3.50;67.48;97143.66;29373;327;63009;-57
2021/05/08 02:09:28;;;;;;;0.70;0.70;;;;;;;3.49;67.71;97147.38;29373;252;63005;-57
2021/05/08 02:09:59;;;;;;;0.70;0.70;;;;;;;3.50;67.60;97149.03;29373;213;63009;-57
2021/05/08 02:10:33;;;;;;;0.70;0.70;;;;;;;3.55;67.30;97146.44;29373;274;63005;-57
2021/05/08 02:11:04;;;;;;;0.70;0.70;;;;;;;3.55;67.35;97151.78;29373;223;63009;-57
2021/05/08 02:11:35;;;;;;;0.70;0.70;;;;;;;3.56;67.44;97150.75;29373;205;63005;-57
2021/05/08 02:12:08;;;;;;;0.70;0.70;;;;;;;3.58;67.41;97146.75;29373;286;63004;-57
2021/05/08 02:12:39;;;;;;;0.70;0.70;;;;;;;3.57;67.60;97149.69;29373;258;63004;-57
2021/05/08 02:13:12;;;;;;;0.60;0.60;;;;;;;3.55;67.54;97151.78;29373;249;63009;-57
2021/05/08 02:13:44;;;;;;;0.70;0.70;;;;;;;3.55;67.40;97157.16;29371;269;64004;-57
2021/05/08 02:14:15;;;;;;;0.70;0.70;;;;;;;3.54;67.42;97150.97;29373;202;63008;-57
2021/05/08 02:14:46;;;;;;;0.70;0.70;;;;;;;3.54;67.84;97144.81;29372;288;63004;-58
2021/05/08 02:15:19;;;;;;;2.75;2.65;;;;;;;3.54;67.83;97150.97;29373;203;63028;-57
2021/05/08 02:15:50;;;;;;;0.70;0.70;;;;;;;3.59;67.80;97142.22;29373;214;63005;-57
2021/05/08 02:16:21;;;;;;;0.70;0.70;;;;;;;3.61;67.40;97146.28;29373;369;63009;-58
2021/05/08 02:16:52;;;;;;;0.70;0.70;;;;;;;3.62;67.24;97139.84;29373;242;63005;-56
2021/05/08 02:17:23;;;;;;;0.70;0.70;;;;;;;3.61;67.66;97146.28;29373;214;63009;-56
2021/05/08 02:17:55;;;;;;;0.60;0.60;;;;;;;3.60;67.74;97139.28;29373;202;63005;-58
2021/05/08 02:18:26;;;;;;;0.70;0.70;;;;;;;3.62;67.46;97147.09;29373;197;63009;-58
2021/05/08 02:18:57;;;;;;;0.70;0.70;;;;;;;3.62;67.49;97141.72;29371;238;64005;-57
2021/05/08 02:19:28;;;;;;;0.70;0.70;;;;;;;3.63;67.58;97143.34;29373;291;63009;-57
2021/05/08 02:19:59;;;;;;;0.70;0.70;;;;;;;3.61;67.65;97140.09;29395;198;63004;-57
2021/05/08 02:20:34;;;;;;;0.70;0.70;;;;;;;3.57;67.82;97145.13;29373;306;63009;-57
2021/05/08 02:21:08;;;;;;;0.70;0.70;;;;;;;3.55;67.82;97131.16;29373;203;63000;-57
2021/05/08 02:21:39;;;;;;;0.70;0.70;;;;;;;3.54;67.57;97140.25;29373;244;63027;-58
2021/05/08 02:22:10;;;;;;;0.70;0.70;;;;;;;3.52;67.78;97138.88;29373;275;63004;-57
2021/05/08 02:22:43;;;;;;;0.60;0.60;;;;;;;3.53;67.52;97149.34;29373;197;63009;-57
2021/05/08 02:23:17;;;;;;;0.65;0.65;;;;;;;3.53;67.55;97143.16;29373;362;63005;-57
2021/05/08 02:23:48;;;;;;;0.60;0.60;;;;;;;3.52;67.64;97147.72;29371;255;64009;-57
2021/05/08 02:24:19;;;;;;;0.60;0.60;;;;;;;3.52;67.42;97142.34;29373;303;63011;-57
2021/05/08 02:24:50;;;;;;;0.60;0.60;;;;;;;3.51;67.45;97140.72;29373;254;63017;-56
2021/05/08 02:25:22;;;;;;;0.70;0.70;;;;;;;3.52;67.16;97146.91;29373;272;63005;-56
2021/05/08 02:25:56;;;;;;;0.60;0.60;;;;;;;3.50;66.96;97144.47;29372;199;63009;-57
2021/05/08 02:26:27;;;;;;;1.12;1.12;;;;;;;3.51;67.25;97147.97;29373;229;63005;-57
2021/05/08 02:26:59;;;;;;;0.70;0.70;;;;;;;3.47;67.21;97149.50;29373;298;63009;-57
2021/05/08 02:27:30;;;;;;;0.60;0.60;;;;;;;3.44;67.43;97139.28;29373;253;63004;-57
2021/05/08 02:28:01;;;;;;;0.68;0.68;;;;;;;3.44;67.28;97147.31;29373;206;63009;-56
2021/05/08 02:28:32;;;;;;;0.60;0.60;;;;;;;3.43;67.20;97149.19;29373;304;63004;-57
2021/05/08 02:29:03;;;;;;;0.60;0.60;;;;;;;3.44;67.39;97144.66;29371;216;64009;-56
2021/05/08 02:29:34;;;;;;;0.70;0.70;;;;;;;3.48;67.25;97140.41;29373;304;63004;-58
2021/05/08 02:30:09;;;;;;;0.70;0.70;;;;;;;3.51;66.90;97139.91;29373;198;63008;-57
2021/05/08 02:30:41;;;;;;;0.62;0.62;;;;;;;3.48;66.90;97135.84;29373;277;63005;-57
2021/05/08 02:31:13;;;;;;;0.60;0.60;;;;;;;3.51;66.86;97139.91;29373;284;63009;-56
2021/05/08 02:31:44;;;;;;;0.60;0.60;;;;;;;3.51;67.30;97140.72;29373;222;63005;-57
2021/05/08 02:32:15;;;;;;;0.70;0.70;;;;;;;3.48;67.27;97143.06;29373;317;63009;-56
2021/05/08 02:32:46;;;;;;;0.70;0.70;;;;;;;3.49;67.06;97142.03;29373;359;63005;-57
2021/05/08 02:33:17;;;;;;;0.60;0.60;;;;;;;3.49;66.95;97142.03;29373;218;63009;-57
2021/05/08 02:33:49;;;;;;;0.65;0.65;;;;;;;3.45;66.91;97146.28;29371;216;64016;-57
2021/05/08 02:34:20;;;;;;;0.70;0.70;;;;;;;3.45;66.81;97143.59;29373;217;63009;-57
2021/05/08 02:34:54;;;;;;;0.60;0.60;;;;;;;3.44;66.86;97140.09;29373;331;63004;-57